CheckWX is a tool to help pilots better visualize weather data.  It is not intended as a substitute for an official pre-flight weather briefing.

14:50:52 UTC

CYYC TAF
Calgary International Airport
Calgary, Canada
TAF CYYC 231442Z 2315/2412 34005KT P6SM FEW025 SCT180 BKN220 FM232000 01010KT P6SM SCT025 BKN220 FM240300 01012KT P6SM SCT050 BKN180 TEMPO 2403/2407 P6SM -SHRA SCT020 BKN050 FM240700 04008KT P6SM BKN020 OVC050 TEMPO 2407/2412 11/2SM -SHSN VV008 RMK NXT FCST BY 231800Z

Mar-23@
15:00 UTC

Mar-23 @ 15:00 UTC

Mar-23@
20:00 UTC

Mar-23 @ 20:00 UTC

TAF CYYC 231442Z 2315/2412 34005KT P6SM FEW025 SCT180 BKN220
Wind
  • 340° at 5 KTS
Cloud Levels
  • Few at 2,500' AGL
  • Scattered at 18,000' AGL
  • Broken at 22,000' AGL

Mar-23@
20:00 UTC

Mar-23 @ 20:00 UTC

Mar-24@
03:00 UTC

Mar-24 @ 03:00 UTC

FM232000 01010KT P6SM SCT025 BKN220

From

From Standard forecast or significant change

Wind
  • 010° at 10 KTS
Cloud Levels
  • Scattered at 2,500' AGL
  • Broken at 22,000' AGL

Mar-24@
03:00 UTC

Mar-24 @ 03:00 UTC

Mar-24@
07:00 UTC

Mar-24 @ 07:00 UTC

FM240300 01012KT P6SM SCT050 BKN180

From

From Standard forecast or significant change

Wind
  • 010° at 12 KTS
Cloud Levels
  • Scattered at 5,000' AGL
  • Broken at 18,000' AGL

Mar-24@
03:00 UTC

Mar-24 @ 03:00 UTC

Mar-24@
07:00 UTC

Mar-24 @ 07:00 UTC

TEMPO 2403/2407 P6SM -SHRA SCT020 BKN050

Temporary

Temporary Changes expected for less than half the time period

Conditions
Light Rain
Cloud Levels
  • Scattered at 2,000' AGL
  • Broken at 5,000' AGL

Mar-24@
07:00 UTC

Mar-24 @ 07:00 UTC

Mar-24@
12:00 UTC

Mar-24 @ 12:00 UTC

FM240700 04008KT P6SM BKN020 OVC050

From

From Standard forecast or significant change

Wind
  • 040° at 8 KTS
Cloud Levels
  • Broken at 2,000' AGL
  • Overcast at 5,000' AGL

Mar-24@
07:00 UTC

Mar-24 @ 07:00 UTC

Mar-24@
12:00 UTC

Mar-24 @ 12:00 UTC

TEMPO 2407/2412 11/2SM -SHSN VV008 RMK NXT FCST BY 231800Z

Temporary

Temporary Changes expected for less than half the time period

Conditions
Light Snow
Cloud Levels
  • Vertical visibility at 800' AGL